createdAt,value
2019-02-08T00:00:27.684Z,56.73
2019-02-08T00:02:34.569Z,52.73
2019-02-08T00:04:41.652Z,63.33
2019-02-08T00:06:49.347Z,49.77
2019-02-08T00:08:56.283Z,56.73
2019-02-08T00:11:03.088Z,56.50
2019-02-08T00:13:11.044Z,54.00
2019-02-08T00:15:26.363Z,59.33
2019-02-08T00:17:33.871Z,54.50
2019-02-08T00:19:41.364Z,55.20
2019-02-08T00:21:48.684Z,56.63
2019-02-08T00:23:55.847Z,56.77
2019-02-08T00:26:02.764Z,53.53
2019-02-08T00:28:10.244Z,58.13
2019-02-08T00:30:26.531Z,54.70
2019-02-08T00:32:33.526Z,54.77
2019-02-08T00:34:40.284Z,55.67
2019-02-08T00:36:47.604Z,55.47
2019-02-08T00:38:54.413Z,50.53
2019-02-08T00:41:01.763Z,50.00
2019-02-08T00:43:09.444Z,57.17
2019-02-08T00:45:23.137Z,53.40
2019-02-08T00:47:30.244Z,53.87
2019-02-08T00:49:37.203Z,64.33
2019-02-08T00:51:44.085Z,62.73
2019-02-08T00:53:50.883Z,56.87
2019-02-08T00:55:57.926Z,64.93
2019-02-08T00:58:06.244Z,63.13
2019-02-08T01:00:17.203Z,50.80
2019-02-08T01:02:24.204Z,52.13
2019-02-08T01:04:31.285Z,49.10
2019-02-08T01:06:38.204Z,55.60
2019-02-08T01:08:45.204Z,52.77
2019-02-08T01:10:53.645Z,50.37
2019-02-08T01:13:01.087Z,53.40
2019-02-08T01:15:12.564Z,58.43
2019-02-08T01:17:19.604Z,54.47
2019-02-08T01:19:26.284Z,54.50
2019-02-08T01:21:32.914Z,56.20
2019-02-08T01:23:41.353Z,53.47
2019-02-08T01:25:48.687Z,60.23
2019-02-08T01:27:55.966Z,56.73
2019-02-08T01:30:05.519Z,52.33
2019-02-08T01:32:12.845Z,56.60
2019-02-08T01:34:19.606Z,55.17
2019-02-08T01:36:26.443Z,58.83
2019-02-08T01:38:35.604Z,54.27
2019-02-08T01:40:43.964Z,48.20
2019-02-08T01:42:51.003Z,54.53
2019-02-08T01:44:58.204Z,57.63
2019-02-08T01:47:05.363Z,50.57
2019-02-08T01:49:13.684Z,64.83
2019-02-08T01:51:20.444Z,53.57
2019-02-08T01:53:27.844Z,59.53
2019-02-08T01:55:35.445Z,58.33
2019-02-08T01:57:42.645Z,59.70
2019-02-08T01:59:50.084Z,57.60
2019-02-08T02:01:56.644Z,54.37
2019-02-08T02:04:03.503Z,50.00
2019-02-08T02:06:10.806Z,56.10
2019-02-08T02:08:17.995Z,53.47
2019-02-08T02:10:46.645Z,53.17
2019-02-08T02:12:54.044Z,54.67
2019-02-08T02:15:01.204Z,53.93
2019-02-08T02:17:09.885Z,58.03
2019-02-08T02:19:16.603Z,55.20
2019-02-08T02:21:24.863Z,51.40
2019-02-08T02:23:31.683Z,55.27
2019-02-08T02:25:38.382Z,57.20
2019-02-08T02:27:46.261Z,51.33
2019-02-08T02:29:55.302Z,54.13
2019-02-08T02:32:02.160Z,56.77
2019-02-08T02:34:10.702Z,51.90
2019-02-08T02:36:18.060Z,56.20
2019-02-08T02:38:24.801Z,57.57
2019-02-08T02:40:31.801Z,54.33
2019-02-08T02:42:38.362Z,52.23
2019-02-08T02:44:46.284Z,49.00
2019-02-08T02:46:54.763Z,51.57
2019-02-08T02:49:01.714Z,55.37
2019-02-08T02:51:08.502Z,53.57
2019-02-08T02:53:16.061Z,48.10
2019-02-08T02:55:32.422Z,47.67
2019-02-08T02:57:41.344Z,51.87
2019-02-08T02:59:47.986Z,52.30
2019-02-08T03:01:54.880Z,56.50
2019-02-08T03:04:02.140Z,47.40
2019-02-08T03:06:09.125Z,44.10
2019-02-08T03:08:17.539Z,49.63
2019-02-08T03:10:25.942Z,44.60
2019-02-08T03:12:32.657Z,54.77
2019-02-08T03:14:39.602Z,48.53
2019-02-08T03:16:46.420Z,53.80
2019-02-08T03:18:53.280Z,45.63
2019-02-08T03:21:00.622Z,51.93
2019-02-08T03:23:09.279Z,57.90
2019-02-08T03:25:21.379Z,48.87
2019-02-08T03:27:28.160Z,49.70
2019-02-08T03:29:35.700Z,53.87
2019-02-08T03:31:43.057Z,50.43
2019-02-08T03:33:50.358Z,46.80
2019-02-08T03:35:58.879Z,47.33
2019-02-08T03:38:06.065Z,48.57
2019-02-08T03:40:17.105Z,48.40
2019-02-08T03:42:24.146Z,53.53
2019-02-08T03:44:31.001Z,45.13
2019-02-08T03:46:37.467Z,42.70
2019-02-08T03:48:44.122Z,45.70
2019-02-08T03:50:50.800Z,48.20
2019-02-08T03:52:58.177Z,41.93
2019-02-08T03:55:06.842Z,54.43
2019-02-08T03:57:15.284Z,42.63
2019-02-08T03:59:22.282Z,55.17
2019-02-08T04:01:30.126Z,43.93
2019-02-08T04:03:37.250Z,51.17
2019-02-08T04:05:44.132Z,48.10
2019-02-08T04:07:52.837Z,54.20
2019-02-08T04:09:59.997Z,47.17
2019-02-08T04:12:06.978Z,47.40
2019-02-08T04:14:16.635Z,45.77
2019-02-08T04:16:23.318Z,46.80
2019-02-08T04:18:30.056Z,46.50
2019-02-08T04:20:38.605Z,44.77
2019-02-08T04:22:45.192Z,44.40
2019-02-08T04:24:51.825Z,39.60
2019-02-08T04:26:58.810Z,39.37
2019-02-08T04:29:05.573Z,45.20
2019-02-08T04:31:13.658Z,41.13
2019-02-08T04:33:20.213Z,49.60
2019-02-08T04:35:27.255Z,52.63
2019-02-08T04:37:33.960Z,52.70
2019-02-08T04:39:41.039Z,48.97
2019-02-08T04:41:49.023Z,51.43
2019-02-08T04:43:58.453Z,43.40
2019-02-08T04:46:06.202Z,42.80
2019-02-08T04:48:12.823Z,44.37
2019-02-08T04:50:28.794Z,41.67
2019-02-08T04:52:37.139Z,44.53
2019-02-08T04:54:43.853Z,44.97
2019-02-08T04:56:53.132Z,44.57
2019-02-08T04:58:59.581Z,43.13
2019-02-08T05:01:06.400Z,41.17
2019-02-08T05:03:13.342Z,37.83
2019-02-08T05:05:20.490Z,40.53
2019-02-08T05:07:27.993Z,45.30
2019-02-08T05:09:34.620Z,44.97
2019-02-08T05:11:41.461Z,40.97
2019-02-08T05:13:49.412Z,36.33
2019-02-08T05:15:55.861Z,43.27
2019-02-08T05:18:02.710Z,41.77
2019-02-08T05:20:18.046Z,46.00
2019-02-08T05:22:25.163Z,47.07
2019-02-08T05:24:32.180Z,39.93
2019-02-08T05:26:38.910Z,41.10
2019-02-08T05:28:46.756Z,43.20
2019-02-08T05:30:53.207Z,43.60
2019-02-08T05:33:20.775Z,41.60
2019-02-08T05:35:28.115Z,39.90
2019-02-08T05:37:34.887Z,43.83
2019-02-08T05:39:41.487Z,40.70
2019-02-08T05:41:48.348Z,46.53
2019-02-08T05:43:55.220Z,45.20
2019-02-08T05:46:01.752Z,44.33
2019-02-08T05:48:08.300Z,39.87
2019-02-08T05:50:25.935Z,41.53
2019-02-08T05:52:32.488Z,42.80
2019-02-08T05:54:39.244Z,43.00
2019-02-08T05:56:46.168Z,50.73
2019-02-08T05:58:54.178Z,42.97
2019-02-08T06:01:00.898Z,42.17
2019-02-08T06:03:08.176Z,44.60
2019-02-08T06:05:17.730Z,45.93
2019-02-08T06:07:25.356Z,47.93
2019-02-08T06:09:32.128Z,48.20
2019-02-08T06:11:38.908Z,44.43
2019-02-08T06:13:45.827Z,40.23
2019-02-08T06:15:52.439Z,40.87
2019-02-08T06:17:59.071Z,45.73
2019-02-08T06:20:10.184Z,45.63
2019-02-08T06:22:17.351Z,55.37
2019-02-08T06:24:25.666Z,51.90
2019-02-08T06:26:32.486Z,45.97
2019-02-08T06:28:39.030Z,47.40
2019-02-08T06:30:46.056Z,47.10
2019-02-08T06:32:55.510Z,49.20
2019-02-08T06:35:02.326Z,43.87
2019-02-08T06:37:09.116Z,57.77
2019-02-08T06:39:17.319Z,53.33
2019-02-08T06:41:23.916Z,51.67
2019-02-08T06:43:30.781Z,46.23
2019-02-08T06:45:38.027Z,46.47
2019-02-08T06:47:46.756Z,42.83
2019-02-08T06:49:54.597Z,45.37
2019-02-08T06:52:01.026Z,49.83
2019-02-08T06:54:07.966Z,42.23
2019-02-08T06:56:16.926Z,42.37
2019-02-08T06:58:26.407Z,40.40
2019-02-08T07:00:52.393Z,42.27
2019-02-08T07:03:20.695Z,43.10
2019-02-08T07:05:47.776Z,51.73
2019-02-08T07:08:09.834Z,87.60
2019-02-08T07:10:21.316Z,73.37
2019-02-08T07:12:32.206Z,61.97
2019-02-08T07:14:43.815Z,57.57
2019-02-08T07:17:01.496Z,58.73
2019-02-08T07:19:16.045Z,60.83
2019-02-08T07:21:31.685Z,52.63
2019-02-08T07:23:40.352Z,59.67
2019-02-08T07:25:48.768Z,57.63
2019-02-08T07:27:59.942Z,55.87
2019-02-08T07:30:12.461Z,49.63
2019-02-08T07:32:30.872Z,43.90
2019-02-08T07:34:39.355Z,44.63
2019-02-08T07:36:50.786Z,46.93
2019-02-08T07:39:03.778Z,43.30
2019-02-08T07:41:31.051Z,50.77
2019-02-08T07:43:40.375Z,44.13
2019-02-08T07:45:52.726Z,47.90
2019-02-08T07:48:10.425Z,44.57
2019-02-08T07:50:21.401Z,39.80
2019-02-08T07:52:47.241Z,44.40
2019-02-08T07:55:11.493Z,43.83
2019-02-08T07:57:23.956Z,41.50
2019-02-08T07:59:33.312Z,38.53
2019-02-08T08:01:46.354Z,65.00
2019-02-08T08:04:01.430Z,76.73
2019-02-08T08:06:09.615Z,56.80
2019-02-08T08:08:35.326Z,104.97
2019-02-08T08:10:46.915Z,87.47
2019-02-08T08:13:07.103Z,91.20
2019-02-08T08:15:18.995Z,38.53
2019-02-08T08:17:29.465Z,58.63
2019-02-08T08:19:52.862Z,53.67
2019-02-08T08:22:01.532Z,72.20
2019-02-08T08:24:12.915Z,69.47
2019-02-08T08:26:24.984Z,51.97
2019-02-08T08:28:42.963Z,68.00
2019-02-08T08:30:53.330Z,85.80
2019-02-08T08:33:04.905Z,71.13
2019-02-08T08:35:42.597Z,69.57
2019-02-08T08:38:13.096Z,50.17
2019-02-08T08:40:47.949Z,42.60
2019-02-08T08:43:36.719Z,47.50
2019-02-08T08:46:10.105Z,46.37
2019-02-08T08:48:48.892Z,41.70
2019-02-08T08:51:20.083Z,35.87
2019-02-08T08:54:01.036Z,38.67
2019-02-08T08:56:27.989Z,39.30
2019-02-08T08:59:05.515Z,42.40
2019-02-08T09:01:47.982Z,40.67
2019-02-08T09:04:07.861Z,51.00
2019-02-08T09:06:52.125Z,60.10
2019-02-08T09:09:18.559Z,57.73
2019-02-08T09:12:02.575Z,59.70
2019-02-08T09:14:39.205Z,57.47
2019-02-08T09:17:07.792Z,48.37
2019-02-08T09:19:31.960Z,46.87
2019-02-08T09:22:22.053Z,70.23
2019-02-08T09:24:53.761Z,48.43
2019-02-08T09:27:37.182Z,86.60
2019-02-08T09:30:16.773Z,58.57
2019-02-08T09:32:49.836Z,63.70
2019-02-08T09:35:25.266Z,45.87
2019-02-08T09:37:46.444Z,62.63
2019-02-08T09:39:57.385Z,55.27
2019-02-08T09:42:22.955Z,43.90
2019-02-08T09:45:27.345Z,58.90
2019-02-08T09:48:10.115Z,57.47
2019-02-08T09:50:41.704Z,45.37
2019-02-08T09:53:30.311Z,49.10
2019-02-08T09:55:44.154Z,35.90
2019-02-08T09:58:09.496Z,39.53
2019-02-08T10:00:35.098Z,44.97
2019-02-08T10:03:12.979Z,45.40
2019-02-08T10:05:43.406Z,40.50
2019-02-08T10:08:14.878Z,41.87
2019-02-08T10:10:54.612Z,43.83
2019-02-08T10:13:25.238Z,46.07
2019-02-08T10:16:11.039Z,41.17
2019-02-08T10:18:54.048Z,50.17
2019-02-08T10:21:26.305Z,52.30
2019-02-08T10:24:19.537Z,43.60
2019-02-08T10:26:57.478Z,46.97
2019-02-08T10:29:40.112Z,60.57
2019-02-08T10:32:27.222Z,47.80
2019-02-08T10:35:19.030Z,56.80
2019-02-08T10:37:57.024Z,62.90
2019-02-08T10:40:36.674Z,52.30
2019-02-08T10:43:03.476Z,36.93
2019-02-08T10:45:35.129Z,52.47
2019-02-08T10:48:10.175Z,41.43
2019-02-08T10:50:50.078Z,45.00
2019-02-08T10:53:53.150Z,35.67
2019-02-08T10:56:25.204Z,37.13
2019-02-08T10:59:16.795Z,37.20
2019-02-08T11:01:52.392Z,37.83
2019-02-08T11:04:34.695Z,36.73
2019-02-08T11:07:08.363Z,32.30
2019-02-08T11:09:53.876Z,31.10
2019-02-08T11:12:24.705Z,35.30
2019-02-08T11:15:03.535Z,33.30
2019-02-08T11:17:49.232Z,41.93
2019-02-08T11:19:59.107Z,44.23
2019-02-08T11:22:05.915Z,36.00
2019-02-08T11:24:13.094Z,36.80
2019-02-08T11:26:24.168Z,35.70
2019-02-08T11:28:30.055Z,36.17
2019-02-08T11:30:36.859Z,38.60
2019-02-08T11:32:45.122Z,40.77
2019-02-08T11:34:52.005Z,41.13
2019-02-08T11:36:58.882Z,41.00
2019-02-08T11:39:11.790Z,47.23
2019-02-08T11:41:18.653Z,47.70
2019-02-08T11:43:27.252Z,42.77
2019-02-08T11:45:33.756Z,43.50
2019-02-08T11:47:41.163Z,42.10
2019-02-08T11:49:47.872Z,39.13
2019-02-08T11:51:54.623Z,46.63
2019-02-08T11:54:04.030Z,48.80
2019-02-08T11:56:11.073Z,43.33
2019-02-08T11:58:17.705Z,49.00
2019-02-08T12:00:31.183Z,53.33
2019-02-08T12:02:40.510Z,39.40
2019-02-08T12:04:46.622Z,41.43
2019-02-08T12:06:53.350Z,48.40
2019-02-08T12:09:01.444Z,44.27
2019-02-08T12:11:09.432Z,39.30
2019-02-08T12:13:16.172Z,41.00
2019-02-08T12:15:24.505Z,69.47
2019-02-08T12:17:31.414Z,48.30
2019-02-08T12:19:38.379Z,44.43
2019-02-08T12:21:44.984Z,41.33
2019-02-08T12:23:51.623Z,44.07
2019-02-08T12:25:58.884Z,47.73
2019-02-08T12:28:06.606Z,49.53
2019-02-08T12:30:40.202Z,44.73
2019-02-08T12:32:49.937Z,41.63
2019-02-08T12:34:58.026Z,62.13
2019-02-08T12:37:04.741Z,59.43
2019-02-08T12:39:12.580Z,41.77
2019-02-08T12:41:18.963Z,47.20
2019-02-08T12:43:27.110Z,43.00
2019-02-08T12:45:33.965Z,46.67
2019-02-08T12:47:40.503Z,65.93
2019-02-08T12:49:48.531Z,47.07
2019-02-08T12:51:55.181Z,80.63
2019-02-08T12:54:03.283Z,56.93
2019-02-08T12:56:12.228Z,50.93
2019-02-08T12:58:18.680Z,41.50
2019-02-08T13:00:30.576Z,36.63
2019-02-08T13:02:37.335Z,40.97
2019-02-08T13:04:44.207Z,38.50
2019-02-08T13:06:51.119Z,39.90
2019-02-08T13:08:57.877Z,35.77
2019-02-08T13:11:06.084Z,37.00
2019-02-08T13:13:12.839Z,38.73
2019-02-08T13:15:19.983Z,46.80
2019-02-08T13:17:29.708Z,74.43
2019-02-08T13:19:36.327Z,40.10
2019-02-08T13:21:43.043Z,43.10
2019-02-08T13:23:49.682Z,40.73
2019-02-08T13:25:57.897Z,37.63
2019-02-08T13:28:04.388Z,40.00
2019-02-08T13:30:32.548Z,40.90
2019-02-08T13:32:39.187Z,34.57
2019-02-08T13:34:45.948Z,35.67
2019-02-08T13:36:52.847Z,32.40
2019-02-08T13:39:00.007Z,39.13
2019-02-08T13:41:06.835Z,35.63
2019-02-08T13:43:13.495Z,33.37
2019-02-08T13:45:20.931Z,37.57
2019-02-08T13:47:27.488Z,38.23
2019-02-08T13:49:36.774Z,40.30
2019-02-08T13:51:43.650Z,35.33
2019-02-08T13:53:51.796Z,34.73
2019-02-08T13:55:58.968Z,38.77
2019-02-08T13:58:06.207Z,32.87
2019-02-08T14:00:17.066Z,38.17
2019-02-08T14:02:23.643Z,35.40
2019-02-08T14:04:31.754Z,31.90
2019-02-08T14:06:38.702Z,32.03
2019-02-08T14:08:45.185Z,33.43
2019-02-08T14:10:53.150Z,33.53
2019-02-08T14:12:59.787Z,33.93
2019-02-08T14:15:11.639Z,31.07
2019-02-08T14:17:19.783Z,34.03
2019-02-08T14:19:26.572Z,31.37
2019-02-08T14:21:33.398Z,24.77
2019-02-08T14:23:41.225Z,33.20
2019-02-08T14:25:48.892Z,38.43
2019-02-08T14:27:55.514Z,32.93
2019-02-08T14:30:03.792Z,28.53
2019-02-08T14:32:11.166Z,31.30
2019-02-08T14:34:17.945Z,33.70
2019-02-08T14:36:24.494Z,32.83
2019-02-08T14:38:31.134Z,36.77
2019-02-08T14:40:38.968Z,27.13
2019-02-08T14:42:46.159Z,30.63
2019-02-08T14:44:53.005Z,54.23
2019-02-08T14:46:59.765Z,40.10
2019-02-08T14:49:06.775Z,42.33
2019-02-08T14:51:13.645Z,36.80
2019-02-08T14:53:20.642Z,73.13
2019-02-08T14:55:27.576Z,34.10
2019-02-08T14:57:34.333Z,45.40
2019-02-08T14:59:41.259Z,41.07
2019-02-08T15:01:49.176Z,38.70
2019-02-08T15:03:55.996Z,33.93
2019-02-08T15:06:02.696Z,48.40
2019-02-08T15:08:09.485Z,44.97
2019-02-08T15:10:20.331Z,65.87
2019-02-08T15:12:27.286Z,48.93
2019-02-08T15:14:34.872Z,46.37
2019-02-08T15:16:41.583Z,45.20
2019-02-08T15:18:48.296Z,50.13
2019-02-08T15:20:54.872Z,36.13
2019-02-08T15:23:01.789Z,39.70
2019-02-08T15:25:10.935Z,49.13
2019-02-08T15:27:24.174Z,49.90
2019-02-08T15:29:26.855Z,50.83
2019-02-08T15:31:33.634Z,36.00
2019-02-08T15:33:40.714Z,40.47
2019-02-08T15:35:50.154Z,41.60
2019-02-08T15:37:57.423Z,52.70
2019-02-08T15:40:05.805Z,36.70
2019-02-08T15:42:14.371Z,34.93
2019-02-08T15:44:21.923Z,38.60
2019-02-08T15:46:29.561Z,32.60
2019-02-08T15:48:36.915Z,33.33
2019-02-08T15:50:44.090Z,34.27
2019-02-08T15:52:52.761Z,39.27
2019-02-08T15:54:59.850Z,55.37
2019-02-08T15:57:08.150Z,42.10
2019-02-08T15:59:15.174Z,36.43
2019-02-08T16:01:22.082Z,38.17
2019-02-08T16:03:30.513Z,78.33
2019-02-08T16:05:38.161Z,69.53
2019-02-08T16:07:45.401Z,38.67
2019-02-08T16:09:52.373Z,83.13
2019-02-08T16:11:59.915Z,52.17
2019-02-08T16:14:09.354Z,46.80
2019-02-08T16:16:17.041Z,54.10
2019-02-08T16:18:24.009Z,65.23
2019-02-08T16:20:31.193Z,54.80
2019-02-08T16:22:38.424Z,49.23
2019-02-08T16:24:45.373Z,48.63
2019-02-08T16:26:52.611Z,49.80
2019-02-08T16:28:59.716Z,50.87
2019-02-08T16:31:07.251Z,50.30
2019-02-08T16:33:14.295Z,63.00
2019-02-08T16:35:24.114Z,54.07
2019-02-08T16:37:31.538Z,51.43
2019-02-08T16:39:38.624Z,51.30
2019-02-08T16:41:46.384Z,60.73
2019-02-08T16:43:53.805Z,73.80
2019-02-08T16:46:01.316Z,61.70
2019-02-08T16:48:17.802Z,62.23
2019-02-08T16:50:31.074Z,47.83
2019-02-08T16:52:38.057Z,36.27
2019-02-08T16:54:44.975Z,43.03
2019-02-08T16:56:52.361Z,37.13
2019-02-08T16:59:00.546Z,41.10
2019-02-08T17:01:08.463Z,39.83
2019-02-08T17:03:16.153Z,43.40
2019-02-08T17:05:27.141Z,48.37
2019-02-08T17:07:34.525Z,39.30
2019-02-08T17:09:41.695Z,35.60
2019-02-08T17:11:49.184Z,53.10
2019-02-08T17:13:57.404Z,57.13
2019-02-08T17:16:04.704Z,53.63
2019-02-08T17:18:12.411Z,41.03
2019-02-08T17:20:24.204Z,49.57
2019-02-08T17:22:31.321Z,38.53
2019-02-08T17:24:38.445Z,46.33
2019-02-08T17:26:45.606Z,52.40
2019-02-08T17:28:53.154Z,59.33
2019-02-08T17:31:00.605Z,54.37
2019-02-08T17:33:09.085Z,51.43
2019-02-08T17:35:22.353Z,51.10
2019-02-08T17:37:29.395Z,49.77
2019-02-08T17:39:36.842Z,75.03
2019-02-08T17:41:44.363Z,69.67
2019-02-08T17:43:53.163Z,43.83
2019-02-08T17:46:00.293Z,47.23
2019-02-08T17:48:11.570Z,49.57
2019-02-08T17:50:27.512Z,41.97
2019-02-08T17:52:35.371Z,48.97
2019-02-08T17:54:43.001Z,43.17
2019-02-08T17:56:50.374Z,49.13
2019-02-08T17:58:58.054Z,43.70
2019-02-08T18:01:05.473Z,51.97
2019-02-08T18:03:12.683Z,52.80
2019-02-08T18:05:20.332Z,47.23
2019-02-08T18:07:27.774Z,48.40
2019-02-08T18:09:35.314Z,53.30
2019-02-08T18:11:42.453Z,45.63
2019-02-08T18:13:49.722Z,58.83
2019-02-08T18:15:57.373Z,56.30
2019-02-08T18:18:09.236Z,56.37
2019-02-08T18:20:26.854Z,48.03
2019-02-08T18:22:34.006Z,52.50
2019-02-08T18:24:41.406Z,54.73
2019-02-08T18:26:48.925Z,42.27
2019-02-08T18:28:55.937Z,54.00
2019-02-08T18:31:03.134Z,51.33
2019-02-08T18:33:10.686Z,51.00
2019-02-08T18:35:18.522Z,49.50
2019-02-08T18:37:25.775Z,53.43
2019-02-08T18:39:33.071Z,47.77
2019-02-08T18:41:40.539Z,49.50
2019-02-08T18:43:48.541Z,46.53
2019-02-08T18:45:56.703Z,51.00
2019-02-08T18:48:04.175Z,49.57
2019-02-08T18:50:32.834Z,45.90
2019-02-08T18:52:39.944Z,42.50
2019-02-08T18:54:47.524Z,53.43
2019-02-08T18:56:54.954Z,46.63
2019-02-08T18:59:02.915Z,48.67
2019-02-08T19:01:10.232Z,55.67
2019-02-08T19:03:17.301Z,54.03
2019-02-08T19:05:25.754Z,60.87
2019-02-08T19:07:42.201Z,61.33
2019-02-08T19:09:49.364Z,57.73
2019-02-08T19:11:56.915Z,60.10
2019-02-08T19:14:03.952Z,53.33
2019-02-08T19:16:11.114Z,57.53
2019-02-08T19:18:18.750Z,57.20
2019-02-08T19:20:32.054Z,308.87
2019-02-08T19:22:40.743Z,209.23
2019-02-08T19:24:47.972Z,321.73
2019-02-08T19:26:55.531Z,151.07
2019-02-08T19:29:03.131Z,139.30
2019-02-08T19:31:10.502Z,56.90
2019-02-08T19:33:17.714Z,68.87
2019-02-08T19:35:25.111Z,52.87
2019-02-08T19:37:32.671Z,64.20
2019-02-08T19:39:44.501Z,50.03
2019-02-08T19:41:51.473Z,58.77
2019-02-08T19:43:59.031Z,55.70
2019-02-08T19:46:06.352Z,52.60
2019-02-08T19:48:14.111Z,48.70
2019-02-08T19:50:28.051Z,41.37
2019-02-08T19:52:34.985Z,51.53
2019-02-08T19:54:43.509Z,55.20
2019-02-08T19:56:50.914Z,47.53
2019-02-08T19:58:59.104Z,50.90
2019-02-08T20:01:08.444Z,45.70
2019-02-08T20:03:16.552Z,48.53
2019-02-08T20:05:28.340Z,50.83
2019-02-08T20:07:35.772Z,48.77
2019-02-08T20:09:43.577Z,53.17
2019-02-08T20:11:51.342Z,67.10
2019-02-08T20:13:58.654Z,48.53
2019-02-08T20:16:06.814Z,55.33
2019-02-08T20:18:14.691Z,50.67
2019-02-08T20:20:21.914Z,48.20
2019-02-08T20:22:29.324Z,62.50
2019-02-08T20:24:36.444Z,51.40
2019-02-08T20:26:43.706Z,56.83
2019-02-08T20:28:50.857Z,54.43
2019-02-08T20:30:57.931Z,57.17
2019-02-08T20:33:05.897Z,55.53
2019-02-08T20:35:16.724Z,61.33
2019-02-08T20:37:26.149Z,61.87
2019-02-08T20:39:34.306Z,57.43
2019-02-08T20:41:47.000Z,65.93
2019-02-08T20:43:54.539Z,66.50
2019-02-08T20:46:02.624Z,56.10
2019-02-08T20:48:22.372Z,58.07
2019-02-08T20:50:30.214Z,54.60
2019-02-08T20:52:37.862Z,55.57
2019-02-08T20:54:46.493Z,55.30
2019-02-08T20:56:59.033Z,65.10
2019-02-08T20:59:04.071Z,79.07
2019-02-08T21:01:14.723Z,65.00
2019-02-08T21:03:23.674Z,72.57
2019-02-08T21:05:32.225Z,57.93
2019-02-08T21:07:39.623Z,68.73
2019-02-08T21:09:46.514Z,66.10
2019-02-08T21:11:53.707Z,59.43
2019-02-08T21:14:00.721Z,62.63
2019-02-08T21:16:08.600Z,59.87
2019-02-08T21:18:15.788Z,53.47
2019-02-08T21:20:25.021Z,55.70
2019-02-08T21:22:32.180Z,57.47
2019-02-08T21:24:41.811Z,50.20
2019-02-08T21:26:49.580Z,54.27
2019-02-08T21:28:57.913Z,54.30
2019-02-08T21:31:11.562Z,54.97
2019-02-08T21:33:18.963Z,62.63
2019-02-08T21:35:25.924Z,49.93
2019-02-08T21:37:33.153Z,58.47
2019-02-08T21:39:40.115Z,57.37
2019-02-08T21:41:48.974Z,56.77
2019-02-08T21:43:56.485Z,53.13
2019-02-08T21:46:04.130Z,53.43
2019-02-08T21:48:12.763Z,47.67
2019-02-08T21:50:22.766Z,44.87
2019-02-08T21:52:30.194Z,47.97
2019-02-08T21:54:38.065Z,50.07
2019-02-08T21:56:45.318Z,54.13
2019-02-08T21:58:52.256Z,51.27
2019-02-08T22:00:59.620Z,44.03
2019-02-08T22:03:08.339Z,47.13
2019-02-08T22:05:15.529Z,53.53
2019-02-08T22:07:22.772Z,40.77
2019-02-08T22:09:29.744Z,49.07
2019-02-08T22:11:37.155Z,55.17
2019-02-08T22:13:44.074Z,46.30
2019-02-08T22:15:51.243Z,43.63
2019-02-08T22:17:58.224Z,45.13
2019-02-08T22:20:08.569Z,45.40
2019-02-08T22:22:15.234Z,45.90
2019-02-08T22:24:22.534Z,47.77
2019-02-08T22:26:30.905Z,41.77
2019-02-08T22:28:37.555Z,40.27
2019-02-08T22:30:44.394Z,42.73
2019-02-08T22:32:52.916Z,51.87
2019-02-08T22:34:59.684Z,48.40
2019-02-08T22:37:07.081Z,56.77
2019-02-08T22:39:15.513Z,59.87
2019-02-08T22:41:24.172Z,48.13
2019-02-08T22:43:34.052Z,55.03
2019-02-08T22:45:43.642Z,51.97
2019-02-08T22:47:50.434Z,50.60
2019-02-08T22:49:58.583Z,55.03
2019-02-08T22:52:05.714Z,50.20
2019-02-08T22:54:12.914Z,45.37
2019-02-08T22:56:19.607Z,50.77
2019-02-08T22:58:26.564Z,45.87
2019-02-08T23:00:44.833Z,53.87
2019-02-08T23:02:53.570Z,45.10
2019-02-08T23:05:00.087Z,45.40
2019-02-08T23:07:08.072Z,47.97
2019-02-08T23:09:21.835Z,45.30
2019-02-08T23:11:29.644Z,49.07
2019-02-08T23:13:36.552Z,48.73
2019-02-08T23:15:43.296Z,43.07
2019-02-08T23:17:50.084Z,49.17
2019-02-08T23:19:56.504Z,46.03
2019-02-08T23:22:03.303Z,49.57
2019-02-08T23:24:10.384Z,44.73
2019-02-08T23:26:17.154Z,44.97
2019-02-08T23:28:23.915Z,52.23
2019-02-08T23:30:30.774Z,39.43
2019-02-08T23:32:37.573Z,47.23
2019-02-08T23:34:45.262Z,49.00
2019-02-08T23:36:52.354Z,44.40
2019-02-08T23:38:59.433Z,48.43
2019-02-08T23:41:07.764Z,46.90
2019-02-08T23:43:14.741Z,50.30
2019-02-08T23:45:23.873Z,43.30
2019-02-08T23:47:31.124Z,50.43
2019-02-08T23:49:37.719Z,52.23
2019-02-08T23:51:44.647Z,40.77
2019-02-08T23:53:51.368Z,46.17
2019-02-08T23:55:59.130Z,42.37
2019-02-08T23:58:08.244Z,47.60
